createdAt,value
2018-11-07T00:02:03.710Z,11.69
2018-11-07T00:05:20.372Z,11.67
2018-11-07T00:11:49.475Z,11.56
2018-11-07T00:15:05.211Z,11.56
2018-11-07T00:18:21.622Z,11.38
2018-11-07T00:21:38.231Z,11.45
2018-11-07T00:24:54.062Z,11.42
2018-11-07T00:28:10.287Z,11.13
2018-11-07T00:31:22.575Z,11.00
2018-11-07T00:34:46.278Z,11.07
2018-11-07T00:38:02.305Z,11.49
2018-11-07T00:41:18.628Z,11.17
2018-11-07T00:44:34.786Z,11.08
2018-11-07T00:47:50.893Z,10.97
2018-11-07T00:51:07.062Z,11.29
2018-11-07T00:54:23.168Z,11.10
2018-11-07T00:57:39.045Z,10.73
2018-11-07T01:00:55.222Z,10.50
2018-11-07T01:04:11.713Z,10.29
2018-11-07T01:07:27.965Z,10.26
2018-11-07T01:10:44.292Z,10.24
2018-11-07T01:14:00.447Z,10.29
2018-11-07T01:17:05.483Z,10.26
2018-11-07T01:20:30.133Z,10.33
2018-11-07T01:23:53.816Z,10.35
2018-11-07T01:27:09.802Z,10.24
2018-11-07T01:30:25.730Z,10.37
2018-11-07T01:33:41.728Z,10.31
2018-11-07T01:36:57.513Z,10.43
2018-11-07T01:40:16.972Z,10.49
2018-11-07T01:43:33.534Z,10.98
2018-11-07T01:46:49.967Z,11.01
2018-11-07T01:49:54.806Z,11.13
2018-11-07T01:53:11.030Z,11.01
2018-11-07T01:56:23.320Z,10.92
2018-11-07T01:59:39.210Z,10.77
2018-11-07T02:02:55.037Z,10.59
2018-11-07T02:06:11.177Z,10.50
2018-11-07T02:09:27.436Z,10.51
2018-11-07T02:12:44.148Z,10.73
2018-11-07T02:15:59.949Z,10.97
2018-11-07T02:19:15.900Z,10.97
2018-11-07T02:22:31.671Z,10.69
2018-11-07T02:25:48.426Z,10.55
2018-11-07T02:29:05.217Z,10.42
2018-11-07T02:32:21.171Z,10.26
2018-11-07T02:35:37.756Z,10.16
2018-11-07T02:38:53.737Z,10.11
2018-11-07T02:42:09.429Z,10.19
2018-11-07T02:45:26.128Z,10.10
2018-11-07T02:48:49.869Z,10.29
2018-11-07T02:52:05.572Z,10.13
2018-11-07T02:55:21.808Z,10.03
2018-11-07T02:58:37.641Z,10.26
2018-11-07T03:01:55.986Z,10.75
2018-11-07T03:05:12.434Z,10.71
2018-11-07T03:08:31.678Z,10.72
2018-11-07T03:11:47.816Z,10.73
2018-11-07T03:14:52.729Z,10.50
2018-11-07T03:18:09.165Z,10.58
2018-11-07T03:24:41.032Z,10.15
2018-11-07T03:28:04.746Z,10.08
2018-11-07T03:31:09.704Z,10.36
2018-11-07T03:34:33.417Z,10.37
2018-11-07T03:37:38.258Z,10.78
2018-11-07T03:41:01.966Z,10.64
2018-11-07T03:44:25.762Z,10.40
2018-11-07T03:47:49.508Z,10.48
2018-11-07T03:51:24.902Z,10.62
2018-11-07T03:54:18.090Z,10.45
2018-11-07T03:57:41.821Z,10.34
2018-11-07T04:01:05.549Z,10.60
2018-11-07T04:04:21.373Z,10.58
2018-11-07T04:07:26.274Z,10.63
2018-11-07T04:10:49.962Z,10.49
2018-11-07T04:13:54.963Z,10.28
2018-11-07T04:17:18.682Z,10.15
2018-11-07T04:20:42.362Z,10.14
2018-11-07T04:24:02.751Z,10.09
2018-11-07T04:27:26.493Z,10.05
2018-11-07T04:30:50.343Z,10.25
2018-11-07T04:33:55.183Z,10.51
2018-11-07T04:37:30.987Z,10.49
2018-11-07T04:40:42.904Z,10.33
2018-11-07T04:43:58.942Z,10.22
2018-11-07T04:47:14.917Z,10.27
2018-11-07T04:50:31.507Z,10.12
2018-11-07T04:53:47.450Z,10.11
2018-11-07T04:57:03.302Z,10.08
2018-11-07T05:00:42.203Z,9.85
2018-11-07T05:03:52.198Z,9.97
2018-11-07T05:06:57.185Z,9.92
2018-11-07T05:10:02.055Z,10.22
2018-11-07T05:13:25.743Z,10.43
2018-11-07T05:16:49.460Z,10.19
2018-11-07T05:20:05.368Z,10.20
2018-11-07T05:23:21.910Z,10.10
2018-11-07T05:26:37.768Z,10.09
2018-11-07T05:29:53.503Z,10.00
2018-11-07T05:33:09.768Z,9.97
2018-11-07T05:36:25.583Z,9.93
2018-11-07T05:39:41.517Z,9.89
2018-11-07T05:42:58.215Z,9.69
2018-11-07T05:46:14.157Z,9.64
2018-11-07T05:49:30.214Z,9.71
2018-11-07T05:52:49.315Z,9.75
2018-11-07T05:56:05.848Z,9.85
2018-11-07T05:59:21.585Z,9.81
2018-11-07T06:02:37.300Z,9.62
2018-11-07T06:05:53.364Z,9.54
2018-11-07T06:09:09.528Z,9.46
2018-11-07T06:12:25.375Z,9.69
2018-11-07T06:15:41.048Z,9.81
2018-11-07T06:18:57.511Z,9.69
2018-11-07T06:22:13.349Z,9.67
2018-11-07T06:25:29.113Z,9.79
2018-11-07T06:28:45.852Z,9.69
2018-11-07T06:32:11.984Z,9.79
2018-11-07T06:35:16.344Z,9.49
2018-11-07T06:38:40.052Z,9.71
2018-11-07T06:41:57.525Z,9.83
2018-11-07T06:45:13.294Z,9.80
2018-11-07T06:48:29.864Z,9.88
2018-11-07T06:51:34.682Z,9.67
2018-11-07T06:55:12.518Z,9.41
2018-11-07T06:58:13.931Z,9.53
2018-11-07T07:01:30.466Z,9.83
2018-11-07T07:04:46.489Z,9.82
2018-11-07T07:08:02.891Z,9.60
2018-11-07T07:11:18.745Z,9.47
2018-11-07T07:14:35.192Z,9.32
2018-11-07T07:17:51.647Z,9.38
2018-11-07T07:21:07.691Z,9.38
2018-11-07T07:24:23.453Z,9.53
2018-11-07T07:27:40.280Z,9.67
2018-11-07T07:30:45.040Z,9.63
2018-11-07T07:34:20.189Z,9.55
2018-11-07T07:37:32.459Z,9.51
2018-11-07T07:40:48.956Z,9.54
2018-11-07T07:44:05.849Z,9.70
2018-11-07T07:47:29.409Z,9.94
2018-11-07T07:50:53.132Z,9.88
2018-11-07T07:54:08.906Z,9.97
2018-11-07T07:57:25.461Z,10.09
2018-11-07T08:00:42.069Z,10.05
2018-11-07T08:03:58.205Z,10.06
2018-11-07T08:07:14.587Z,10.16
2018-11-07T08:10:30.319Z,10.19
2018-11-07T08:13:35.690Z,10.45
2018-11-07T08:16:59.110Z,10.55
2018-11-07T08:20:34.487Z,10.65
2018-11-07T08:23:38.683Z,10.70
2018-11-07T08:26:55.240Z,10.72
2018-11-07T08:30:11.262Z,10.69
2018-11-07T08:33:27.726Z,10.80
2018-11-07T08:36:43.730Z,10.81
2018-11-07T08:39:59.820Z,10.93
2018-11-07T08:43:15.701Z,10.84
2018-11-07T08:46:31.681Z,11.07
2018-11-07T08:49:47.580Z,11.07
2018-11-07T08:53:03.455Z,11.16
2018-11-07T08:56:19.372Z,11.28
2018-11-07T08:59:35.374Z,11.27
2018-11-07T09:02:51.470Z,11.15
2018-11-07T09:06:09.753Z,11.31
2018-11-07T09:09:25.621Z,11.25
2018-11-07T09:12:41.406Z,11.31
2018-11-07T09:15:46.404Z,11.28
2018-11-07T09:19:10.076Z,11.32
2018-11-07T09:22:33.799Z,11.55
2018-11-07T09:25:57.516Z,11.67
2018-11-07T09:29:21.287Z,11.75
2018-11-07T09:32:44.984Z,11.58
2018-11-07T09:36:08.679Z,11.58
2018-11-07T09:39:13.510Z,11.56
2018-11-07T09:42:37.602Z,11.71
2018-11-07T09:46:01.358Z,11.64
2018-11-07T09:49:17.336Z,11.72
2018-11-07T09:52:33.180Z,11.63
2018-11-07T09:55:49.791Z,11.73
2018-11-07T09:58:54.063Z,11.87
2018-11-07T10:02:10.616Z,11.72
2018-11-07T10:05:26.531Z,11.72
2018-11-07T10:08:31.413Z,12.06
2018-11-07T10:11:55.089Z,12.13
2018-11-07T10:15:12.190Z,12.18
2018-11-07T10:18:28.617Z,12.28
2018-11-07T10:21:45.330Z,12.20
2018-11-07T10:25:01.116Z,12.01
2018-11-07T10:28:17.036Z,12.34
2018-11-07T10:31:32.907Z,12.46
2018-11-07T10:34:48.887Z,12.50
2018-11-07T10:38:04.666Z,12.52
2018-11-07T10:41:20.429Z,12.61
2018-11-07T10:44:36.332Z,12.75
2018-11-07T10:47:52.593Z,12.84
2018-11-07T10:51:08.587Z,12.78
2018-11-07T10:54:24.311Z,12.81
2018-11-07T10:57:40.444Z,12.82
2018-11-07T11:01:14.878Z,12.74
2018-11-07T11:04:30.853Z,12.93
2018-11-07T11:07:47.416Z,12.95
2018-11-07T11:11:03.080Z,13.08
2018-11-07T11:14:19.387Z,13.11
2018-11-07T11:17:35.389Z,13.07
2018-11-07T11:20:40.246Z,13.04
2018-11-07T11:24:04.008Z,13.34
2018-11-07T11:30:44.816Z,13.43
2018-11-07T11:34:00.656Z,13.49
2018-11-07T11:37:16.473Z,13.49
2018-11-07T11:40:33.012Z,13.38
2018-11-07T11:43:49.294Z,13.17
2018-11-07T11:47:05.783Z,13.32
2018-11-07T11:50:22.370Z,13.41
2018-11-07T11:53:38.595Z,13.71
2018-11-07T11:56:43.461Z,13.77
2018-11-07T12:00:20.340Z,13.70
2018-11-07T12:03:25.273Z,13.73
2018-11-07T12:06:18.255Z,13.74
2018-11-07T12:09:41.952Z,13.79
2018-11-07T12:12:50.859Z,13.61
2018-11-07T12:16:14.947Z,13.56
2018-11-07T12:19:31.179Z,13.81
2018-11-07T12:22:49.903Z,13.92
2018-11-07T12:26:06.422Z,13.98
2018-11-07T12:29:18.517Z,14.01
2018-11-07T12:32:34.595Z,13.98
2018-11-07T12:35:50.710Z,13.89
2018-11-07T12:39:06.692Z,13.79
2018-11-07T12:42:22.649Z,13.75
2018-11-07T12:45:38.298Z,13.81
2018-11-07T12:48:54.293Z,13.88
2018-11-07T12:52:09.943Z,13.83
2018-11-07T12:55:25.699Z,13.99
2018-11-07T12:58:41.920Z,13.86
2018-11-07T13:01:57.797Z,13.67
2018-11-07T13:05:17.868Z,13.73
2018-11-07T13:08:34.429Z,13.71
2018-11-07T13:11:50.310Z,13.77
2018-11-07T13:15:06.060Z,13.88
2018-11-07T13:18:22.219Z,13.92
2018-11-07T13:21:38.094Z,13.90
2018-11-07T13:24:42.933Z,13.98
2018-11-07T13:28:06.714Z,13.92
2018-11-07T13:31:11.506Z,14.07
2018-11-07T13:34:35.302Z,13.97
2018-11-07T13:37:52.173Z,13.97
2018-11-07T13:41:07.901Z,14.04
2018-11-07T13:44:24.008Z,14.08
2018-11-07T13:47:47.441Z,14.04
2018-11-07T13:51:11.105Z,13.95
2018-11-07T13:54:27.033Z,14.00
2018-11-07T13:57:43.834Z,14.03
2018-11-07T14:01:00.424Z,14.18
2018-11-07T14:04:16.800Z,14.17
2018-11-07T14:07:32.814Z,14.19
2018-11-07T14:10:48.608Z,14.12
2018-11-07T14:13:53.568Z,14.05
2018-11-07T14:17:17.324Z,13.92
2018-11-07T14:20:33.989Z,13.92
2018-11-07T14:23:49.851Z,13.89
2018-11-07T14:27:05.724Z,13.92
2018-11-07T14:30:21.891Z,13.66
2018-11-07T14:33:38.624Z,13.58
2018-11-07T14:36:54.626Z,13.31
2018-11-07T14:40:10.590Z,13.69
2018-11-07T14:43:15.692Z,13.75
2018-11-07T14:46:39.530Z,13.61
2018-11-07T14:50:03.246Z,13.51
2018-11-07T14:53:18.909Z,13.60
2018-11-07T14:56:35.617Z,13.60
2018-11-07T14:59:51.335Z,13.51
2018-11-07T15:03:07.681Z,13.61
2018-11-07T15:06:24.230Z,13.56
2018-11-07T15:09:40.541Z,12.96
2018-11-07T15:12:56.355Z,12.74
2018-11-07T15:16:12.124Z,13.16
2018-11-07T15:19:28.397Z,13.25
2018-11-07T15:22:44.608Z,13.19
2018-11-07T15:26:08.039Z,13.52
2018-11-07T15:29:43.420Z,13.64
2018-11-07T15:32:47.935Z,13.59
2018-11-07T15:35:52.873Z,13.37
2018-11-07T15:39:28.266Z,13.45
2018-11-07T15:42:33.065Z,13.39
2018-11-07T15:45:48.968Z,13.31
2018-11-07T15:48:53.816Z,13.27
2018-11-07T15:52:17.536Z,13.34
2018-11-07T15:55:52.879Z,13.39
2018-11-07T15:58:57.977Z,13.26
2018-11-07T16:02:14.000Z,13.07
2018-11-07T16:05:30.228Z,13.06
2018-11-07T16:08:35.174Z,13.16
2018-11-07T16:11:58.871Z,13.01
2018-11-07T16:15:03.712Z,12.25
2018-11-07T16:18:27.431Z,12.08
2018-11-07T16:21:43.360Z,11.75
2018-11-07T16:24:59.760Z,11.52
2018-11-07T16:28:16.026Z,11.66
2018-11-07T16:31:32.674Z,11.69
2018-11-07T16:34:49.324Z,11.83
2018-11-07T16:38:05.346Z,11.55
2018-11-07T16:41:21.436Z,11.76
2018-11-07T16:44:37.083Z,12.17
2018-11-07T16:47:53.825Z,11.99
2018-11-07T16:54:29.473Z,11.77
2018-11-07T16:57:34.899Z,11.66
2018-11-07T17:00:58.592Z,12.02
2018-11-07T17:04:15.369Z,12.03
2018-11-07T17:07:31.195Z,12.00
2018-11-07T17:10:46.878Z,12.38
2018-11-07T17:14:03.063Z,12.76
2018-11-07T17:17:19.002Z,12.62
2018-11-07T17:20:35.532Z,12.37
2018-11-07T17:26:26.822Z,12.62
2018-11-07T17:29:46.071Z,12.64
2018-11-07T17:32:55.447Z,12.58
2018-11-07T17:36:11.432Z,12.50
2018-11-07T17:39:29.445Z,12.67
2018-11-07T17:42:46.290Z,12.40
2018-11-07T17:46:02.893Z,12.16
2018-11-07T17:49:19.437Z,12.30
2018-11-07T17:52:35.871Z,12.41
2018-11-07T17:55:52.357Z,12.32
2018-11-07T17:59:08.783Z,12.23
2018-11-07T18:02:24.558Z,12.31
2018-11-07T18:05:41.011Z,12.25
2018-11-07T18:08:57.081Z,12.08
2018-11-07T18:12:12.826Z,12.04
2018-11-07T18:15:29.376Z,12.16
2018-11-07T18:18:45.406Z,12.33
2018-11-07T18:21:50.213Z,12.21
2018-11-07T18:25:26.918Z,11.99
2018-11-07T18:28:50.339Z,11.88
2018-11-07T18:31:55.143Z,11.85
2018-11-07T18:35:20.038Z,12.13
2018-11-07T18:38:35.676Z,12.18
2018-11-07T18:41:52.051Z,12.18
2018-11-07T18:45:08.638Z,12.27
2018-11-07T18:48:13.541Z,12.17
2018-11-07T18:51:37.278Z,12.37
2018-11-07T18:55:01.061Z,12.26
2018-11-07T18:58:16.912Z,12.05
2018-11-07T19:01:33.461Z,12.15
2018-11-07T19:04:49.525Z,12.12
2018-11-07T19:08:13.076Z,12.06
2018-11-07T19:11:36.847Z,11.73
2018-11-07T19:14:41.679Z,11.73
2018-11-07T19:18:05.626Z,12.14
2018-11-07T19:21:22.216Z,12.38
2018-11-07T19:24:38.102Z,12.29
2018-11-07T19:27:53.956Z,12.36
2018-11-07T19:31:09.937Z,12.40
2018-11-07T19:34:28.711Z,12.49
2018-11-07T19:37:44.447Z,12.63
2018-11-07T19:41:01.143Z,12.44
2018-11-07T19:44:16.838Z,12.45
2018-11-07T19:47:32.751Z,12.63
2018-11-07T19:50:48.627Z,12.53
2018-11-07T19:54:05.214Z,12.37
2018-11-07T19:57:21.731Z,12.43
2018-11-07T20:00:26.739Z,12.59
2018-11-07T20:03:45.780Z,12.62
2018-11-07T20:06:55.467Z,12.67
2018-11-07T20:10:12.794Z,12.84
2018-11-07T20:13:29.409Z,12.73
2018-11-07T20:16:45.943Z,12.73
2018-11-07T20:20:02.058Z,12.53
2018-11-07T20:23:18.423Z,12.44
2018-11-07T20:26:23.348Z,12.47
2018-11-07T20:29:28.630Z,12.45
2018-11-07T20:32:33.442Z,12.41
2018-11-07T20:35:52.705Z,12.26
2018-11-07T20:39:02.177Z,12.17
2018-11-07T20:42:18.105Z,12.27
2018-11-07T20:45:41.934Z,12.08
2018-11-07T20:49:06.139Z,12.00
2018-11-07T20:56:46.123Z,11.68
2018-11-07T20:59:48.578Z,11.53
2018-11-07T21:03:04.931Z,11.45
2018-11-07T21:06:28.829Z,11.40
2018-11-07T21:09:52.656Z,11.64
2018-11-07T21:13:16.183Z,11.51
2018-11-07T21:16:39.881Z,11.63
2018-11-07T21:19:55.893Z,11.63
2018-11-07T21:23:12.623Z,11.91
2018-11-07T21:26:28.514Z,11.86
2018-11-07T21:29:44.234Z,11.93
2018-11-07T21:33:00.657Z,11.81
2018-11-07T21:36:16.519Z,11.79
2018-11-07T21:39:32.494Z,11.79
2018-11-07T21:42:48.556Z,11.82
2018-11-07T21:46:04.813Z,12.04
2018-11-07T21:49:21.423Z,11.93
2018-11-07T21:52:37.383Z,12.00
2018-11-07T21:55:53.100Z,11.88
2018-11-07T21:59:09.374Z,11.88
2018-11-07T22:02:25.473Z,11.74
2018-11-07T22:05:42.098Z,11.85
2018-11-07T22:08:58.755Z,11.86
2018-11-07T22:12:14.853Z,11.86
2018-11-07T22:15:30.599Z,11.77
2018-11-07T22:18:47.246Z,12.13
2018-11-07T22:22:03.802Z,11.86
2018-11-07T22:25:20.763Z,11.68
2018-11-07T22:28:32.671Z,11.59
2018-11-07T22:31:48.817Z,11.69
2018-11-07T22:35:05.616Z,11.66
2018-11-07T22:38:10.414Z,11.67
2018-11-07T22:41:48.175Z,11.54
2018-11-07T22:44:57.855Z,11.51
2018-11-07T22:48:21.570Z,11.23
2018-11-07T22:51:38.256Z,11.13
2018-11-07T22:54:54.832Z,11.09
2018-11-07T22:58:10.730Z,11.07
2018-11-07T23:01:45.174Z,11.03
2018-11-07T23:05:01.751Z,11.04
2018-11-07T23:08:18.294Z,11.18
2018-11-07T23:11:39.943Z,11.07
2018-11-07T23:14:56.495Z,10.95
2018-11-07T23:18:12.236Z,10.75
2018-11-07T23:21:28.848Z,10.83
2018-11-07T23:24:44.610Z,10.72
2018-11-07T23:28:00.477Z,10.66
2018-11-07T23:31:16.461Z,10.67
2018-11-07T23:34:32.551Z,10.68
2018-11-07T23:37:48.896Z,10.58
2018-11-07T23:41:05.020Z,10.54
2018-11-07T23:44:20.859Z,10.41
2018-11-07T23:47:37.152Z,10.49
2018-11-07T23:50:53.316Z,10.53
2018-11-07T23:54:09.191Z,10.46
2018-11-07T23:57:25.037Z,10.48
